Zurich, Switzerland
Current Conditions -  °F | °C
As of 10:50 AM on Tuesday 21 Oct 2014 (Local Time) from LSMD Reporting Station
Overcast Overcast  
Wind Chill: 59°   Ceiling: 1900
Heat Index: 59°   Visibility: 6mi
Dew Point: 57°   Wind: 2mph
Humidity: 94%   Direction: NA
Pressure: 29.97"   Gusts: NA
Location:  47.38°N, 8.54°E
Report Text: LSMD 210850Z VRB02KT 9999 OVC019 15/14 Q1015 RMK GRN
Loading
Personal Weather Stations






























Interactive Weather Map
Tropical Storm Tracking
New forecast layout! Learn more

10-Day Weather Forecast

Advertisements
Track Severe Weather on mobile